sensor_id;sensor_type;location;lat;lon;timestamp;pressure;altitude;pressure_sealevel;temperature;humidity
75317;BME280;63913;51.492;10.368;2022-10-17T00:01:05;98816.06;;;14.59;84.55
75317;BME280;63913;51.492;10.368;2022-10-17T00:03:40;98817.84;;;14.64;83.73
75317;BME280;63913;51.492;10.368;2022-10-17T00:06:12;98830.00;;;14.71;83.98
75317;BME280;63913;51.492;10.368;2022-10-17T00:08:39;98823.06;;;14.67;83.53
75317;BME280;63913;51.492;10.368;2022-10-17T00:11:10;98829.09;;;14.66;83.52
75317;BME280;63913;51.492;10.368;2022-10-17T00:13:50;98821.34;;;14.69;83.38
75317;BME280;63913;51.492;10.368;2022-10-17T00:16:36;98821.31;;;14.65;83.23
75317;BME280;63913;51.492;10.368;2022-10-17T00:19:07;98804.84;;;14.58;83.36
75317;BME280;63913;51.492;10.368;2022-10-17T00:21:33;98818.63;;;14.56;83.14
75317;BME280;63913;51.492;10.368;2022-10-17T00:23:59;98812.47;;;14.46;83.42
75317;BME280;63913;51.492;10.368;2022-10-17T00:26:24;98817.50;;;14.37;83.86
75317;BME280;63913;51.492;10.368;2022-10-17T00:28:51;98826.91;;;14.30;83.91
75317;BME280;63913;51.492;10.368;2022-10-17T00:31:20;98817.38;;;14.28;84.17
75317;BME280;63913;51.492;10.368;2022-10-17T00:33:46;98816.44;;;14.23;84.31
75317;BME280;63913;51.492;10.368;2022-10-17T00:36:17;98816.41;;;14.18;84.18
75317;BME280;63913;51.492;10.368;2022-10-17T00:38:45;98824.19;;;14.21;84.43
75317;BME280;63913;51.492;10.368;2022-10-17T00:41:17;98829.34;;;14.21;84.00
75317;BME280;63913;51.492;10.368;2022-10-17T00:44:04;98840.56;;;14.19;83.81
75317;BME280;63913;51.492;10.368;2022-10-17T00:46:35;98830.22;;;14.22;83.51
75317;BME280;63913;51.492;10.368;2022-10-17T00:49:10;98840.41;;;14.11;83.76
75317;BME280;63913;51.492;10.368;2022-10-17T00:51:42;98843.03;;;14.12;84.04
75317;BME280;63913;51.492;10.368;2022-10-17T00:54:16;98843.03;;;14.12;83.89
75317;BME280;63913;51.492;10.368;2022-10-17T00:56:45;98849.16;;;14.19;84.04
75317;BME280;63913;51.492;10.368;2022-10-17T00:59:12;98854.13;;;14.02;83.37
75317;BME280;63913;51.492;10.368;2022-10-17T01:01:50;98854.19;;;14.07;84.32
75317;BME280;63913;51.492;10.368;2022-10-17T01:04:18;98842.91;;;14.02;83.89
75317;BME280;63913;51.492;10.368;2022-10-17T01:06:43;98848.09;;;14.05;84.14
75317;BME280;63913;51.492;10.368;2022-10-17T01:09:14;98842.03;;;14.03;84.12
75317;BME280;63913;51.492;10.368;2022-10-17T01:26:15;98856.19;;;15.00;82.03
75317;BME280;63913;51.492;10.368;2022-10-17T01:32:16;98848.59;;;15.17;80.62
75317;BME280;63913;51.492;10.368;2022-10-17T01:34:48;98860.75;;;15.21;80.87
75317;BME280;63913;51.492;10.368;2022-10-17T01:40:40;98845.00;;;16.02;75.59
75317;BME280;63913;51.492;10.368;2022-10-17T01:43:12;98847.66;;;16.16;74.90
75317;BME280;63913;51.492;10.368;2022-10-17T01:46:06;98844.22;;;16.22;74.25
75317;BME280;63913;51.492;10.368;2022-10-17T01:48:43;98852.97;;;16.36;73.55
75317;BME280;63913;51.492;10.368;2022-10-17T01:51:30;98847.09;;;16.79;71.66
75317;BME280;63913;51.492;10.368;2022-10-17T01:54:15;98843.69;;;16.91;71.21
75317;BME280;63913;51.492;10.368;2022-10-17T01:56:43;98845.41;;;16.95;70.09
75317;BME280;63913;51.492;10.368;2022-10-17T01:59:18;98842.84;;;16.94;70.99
75317;BME280;63913;51.492;10.368;2022-10-17T02:01:58;98830.72;;;17.11;70.20
75317;BME280;63913;51.492;10.368;2022-10-17T02:04:25;98816.91;;;17.33;68.83
75317;BME280;63913;51.492;10.368;2022-10-17T02:06:50;98831.63;;;17.39;68.18
75317;BME280;63913;51.492;10.368;2022-10-17T02:09:24;98839.41;;;17.25;69.75
75317;BME280;63913;51.492;10.368;2022-10-17T02:18:13;98836.69;;;16.66;72.00
75317;BME280;63913;51.492;10.368;2022-10-17T02:23:53;98840.09;;;16.60;72.23
75317;BME280;63913;51.492;10.368;2022-10-17T02:26:40;98837.53;;;16.62;72.19
75317;BME280;63913;51.492;10.368;2022-10-17T02:29:48;98833.22;;;16.61;71.85
75317;BME280;63913;51.492;10.368;2022-10-17T02:32:24;98828.94;;;16.76;71.28
75317;BME280;63913;51.492;10.368;2022-10-17T02:34:55;98838.44;;;16.68;71.74
75317;BME280;63913;51.492;10.368;2022-10-17T02:37:26;98839.34;;;16.78;71.50
75317;BME280;63913;51.492;10.368;2022-10-17T02:39:56;98836.66;;;16.63;72.93
75317;BME280;63913;51.492;10.368;2022-10-17T02:42:33;98827.06;;;16.48;73.24
75317;BME280;63913;51.492;10.368;2022-10-17T02:45:00;98835.66;;;16.35;73.94
75317;BME280;63913;51.492;10.368;2022-10-17T02:47:50;98831.34;;;16.38;73.92
75317;BME280;63913;51.492;10.368;2022-10-17T02:50:28;98825.34;;;16.52;73.16
75317;BME280;63913;51.492;10.368;2022-10-17T02:53:19;98830.47;;;16.38;73.36
75317;BME280;63913;51.492;10.368;2022-10-17T02:55:50;98831.34;;;16.37;73.70
75317;BME280;63913;51.492;10.368;2022-10-17T02:58:36;98825.28;;;16.36;73.37
75317;BME280;63913;51.492;10.368;2022-10-17T03:01:08;98823.56;;;16.35;73.38
75317;BME280;63913;51.492;10.368;2022-10-17T03:03:43;98824.44;;;16.47;72.62
75317;BME280;63913;51.492;10.368;2022-10-17T03:06:08;98816.66;;;16.44;72.98
75317;BME280;63913;51.492;10.368;2022-10-17T03:08:34;98825.28;;;16.36;73.58
75317;BME280;63913;51.492;10.368;2022-10-17T03:11:02;98823.56;;;16.35;73.49
75317;BME280;63913;51.492;10.368;2022-10-17T03:13:46;98813.97;;;16.25;74.00
75317;BME280;63913;51.492;10.368;2022-10-17T03:16:14;98823.53;;;16.32;73.18
75317;BME280;63913;51.492;10.368;2022-10-17T03:18:39;98821.81;;;16.36;73.56
75317;BME280;63913;51.492;10.368;2022-10-17T03:21:08;98823.59;;;16.48;72.82
75317;BME280;63913;51.492;10.368;2022-10-17T03:23:39;98830.59;;;16.64;71.87
75317;BME280;63913;51.492;10.368;2022-10-17T03:26:09;98836.59;;;16.52;72.62
75317;BME280;63913;51.492;10.368;2022-10-17T03:28:34;98840.88;;;16.41;72.88
75317;BME280;63913;51.492;10.368;2022-10-17T03:31:05;98840.00;;;16.37;72.82
75317;BME280;63913;51.492;10.368;2022-10-17T03:33:40;98833.88;;;16.26;73.68
75317;BME280;63913;51.492;10.368;2022-10-17T03:36:16;98843.38;;;16.20;74.03
75317;BME280;63913;51.492;10.368;2022-10-17T03:38:42;98846.72;;;16.07;74.74
75317;BME280;63913;51.492;10.368;2022-10-17T03:41:11;98840.66;;;16.01;74.35
75317;BME280;63913;51.492;10.368;2022-10-17T03:43:37;98832.06;;;16.10;74.46
75317;BME280;63913;51.492;10.368;2022-10-17T03:46:09;98837.19;;;16.01;75.00
75317;BME280;63913;51.492;10.368;2022-10-17T03:48:35;98847.56;;;15.99;74.41
75317;BME280;63913;51.492;10.368;2022-10-17T03:51:03;98847.56;;;16.01;74.21
75317;BME280;63913;51.492;10.368;2022-10-17T03:53:28;98847.53;;;15.98;74.31
75317;BME280;63913;51.492;10.368;2022-10-17T03:58:36;98851.00;;;15.98;74.86
75317;BME280;63913;51.492;10.368;2022-10-17T04:01:14;98849.28;;;15.97;74.51
75317;BME280;63913;51.492;10.368;2022-10-17T04:03:48;98857.84;;;15.84;75.28
75317;BME280;63913;51.492;10.368;2022-10-17T04:06:14;98852.69;;;15.89;75.39
75317;BME280;63913;51.492;10.368;2022-10-17T04:08:39;98853.50;;;15.79;75.39
75317;BME280;63913;51.492;10.368;2022-10-17T04:11:06;98861.38;;;15.98;74.21
75317;BME280;63913;51.492;10.368;2022-10-17T04:13:37;98850.97;;;15.92;74.56
75317;BME280;63913;51.492;10.368;2022-10-17T04:16:05;98857.03;;;15.88;74.86
75317;BME280;63913;51.492;10.368;2022-10-17T04:18:41;98852.72;;;15.93;74.01
75317;BME280;63913;51.492;10.368;2022-10-17T04:21:10;98852.81;;;16.10;73.40
75317;BME280;63913;51.492;10.368;2022-10-17T04:23:36;98851.94;;;16.03;73.77
75317;BME280;63913;51.492;10.368;2022-10-17T04:26:14;98857.13;;;16.03;73.34
75317;BME280;63913;51.492;10.368;2022-10-17T04:28:42;98849.34;;;16.07;73.39
75317;BME280;63913;51.492;10.368;2022-10-17T04:31:11;98850.25;;;16.13;73.00
75317;BME280;63913;51.492;10.368;2022-10-17T04:33:40;98852.91;;;16.21;72.19
75317;BME280;63913;51.492;10.368;2022-10-17T04:36:09;98860.72;;;16.31;72.19
75317;BME280;63913;51.492;10.368;2022-10-17T04:38:47;98858.06;;;16.18;72.56
75317;BME280;63913;51.492;10.368;2022-10-17T04:41:16;98868.41;;;16.15;72.91
75317;BME280;63913;51.492;10.368;2022-10-17T04:43:53;98864.94;;;16.14;73.16
75317;BME280;63913;51.492;10.368;2022-10-17T04:46:22;98864.06;;;16.14;72.62
75317;BME280;63913;51.492;10.368;2022-10-17T04:48:53;98866.66;;;16.14;72.95
75317;BME280;63913;51.492;10.368;2022-10-17T04:51:19;98859.75;;;16.16;73.08
75317;BME280;63913;51.492;10.368;2022-10-17T04:53:44;98870.19;;;16.25;72.39
75317;BME280;63913;51.492;10.368;2022-10-17T04:56:18;98864.16;;;16.27;71.86
75317;BME280;63913;51.492;10.368;2022-10-17T04:58:48;98885.81;;;16.28;72.09
75317;BME280;63913;51.492;10.368;2022-10-17T05:01:16;98881.41;;;16.22;72.77
75317;BME280;63913;51.492;10.368;2022-10-17T05:03:41;98877.06;;;16.15;72.59
75317;BME280;63913;51.492;10.368;2022-10-17T05:06:18;98877.97;;;16.19;72.05
75317;BME280;63913;51.492;10.368;2022-10-17T05:08:43;98877.06;;;16.17;72.29
75317;BME280;63913;51.492;10.368;2022-10-17T05:11:22;98874.50;;;16.23;71.81
75317;BME280;63913;51.492;10.368;2022-10-17T05:13:52;98877.97;;;16.22;72.28
75317;BME280;63913;51.492;10.368;2022-10-17T05:16:18;98879.66;;;16.12;72.60
75317;BME280;63913;51.492;10.368;2022-10-17T05:18:48;98883.09;;;16.10;72.82
75317;BME280;63913;51.492;10.368;2022-10-17T05:21:21;98886.59;;;16.13;72.44
75317;BME280;63913;51.492;10.368;2022-10-17T05:23:47;98883.06;;;16.05;72.69
75317;BME280;63913;51.492;10.368;2022-10-17T05:26:19;98884.75;;;16.00;73.16
75317;BME280;63913;51.492;10.368;2022-10-17T05:28:51;98889.03;;;15.98;72.91
75317;BME280;63913;51.492;10.368;2022-10-17T05:31:17;98884.81;;;16.11;72.13
75317;BME280;63913;51.492;10.368;2022-10-17T05:33:43;98884.78;;;16.06;72.92
75317;BME280;63913;51.492;10.368;2022-10-17T05:36:08;98879.56;;;15.97;72.70
75317;BME280;63913;51.492;10.368;2022-10-17T05:38:34;98882.13;;;15.98;72.58
75317;BME280;63913;51.492;10.368;2022-10-17T05:41:01;98882.25;;;16.15;71.63
75317;BME280;63913;51.492;10.368;2022-10-17T05:43:30;98879.63;;;16.11;71.72
75317;BME280;63913;51.492;10.368;2022-10-17T05:45:56;98880.50;;;16.11;71.97
75317;BME280;63913;51.492;10.368;2022-10-17T05:48:27;98882.22;;;16.14;72.06
75317;BME280;63913;51.492;10.368;2022-10-17T05:51:00;98886.63;;;16.19;71.32
75317;BME280;63913;51.492;10.368;2022-10-17T05:53:31;98886.63;;;16.19;71.99
75317;BME280;63913;51.492;10.368;2022-10-17T05:56:12;98895.28;;;16.26;71.29
75317;BME280;63913;51.492;10.368;2022-10-17T05:58:40;98884.94;;;16.27;71.25
75317;BME280;63913;51.492;10.368;2022-10-17T06:01:09;98896.22;;;16.38;70.40
75317;BME280;63913;51.492;10.368;2022-10-17T06:03:36;98898.81;;;16.34;70.80
75317;BME280;63913;51.492;10.368;2022-10-17T06:06:17;98903.19;;;16.44;70.56
75317;BME280;63913;51.492;10.368;2022-10-17T06:08:46;98905.72;;;16.38;70.67
75317;BME280;63913;51.492;10.368;2022-10-17T06:11:12;98910.09;;;16.40;70.50
75317;BME280;63913;51.492;10.368;2022-10-17T06:13:38;98909.22;;;16.40;70.36
75317;BME280;63913;51.492;10.368;2022-10-17T06:16:13;98913.53;;;16.36;70.91
75317;BME280;63913;51.492;10.368;2022-10-17T06:18:45;98916.97;;;16.34;70.88
75317;BME280;63913;51.492;10.368;2022-10-17T06:21:21;98923.91;;;16.38;70.45
75317;BME280;63913;51.492;10.368;2022-10-17T06:23:47;98920.53;;;16.50;69.71
75317;BME280;63913;51.492;10.368;2022-10-17T06:26:12;98913.63;;;16.52;69.83
75317;BME280;63913;51.492;10.368;2022-10-17T06:28:38;98909.28;;;16.55;69.80
75317;BME280;63913;51.492;10.368;2022-10-17T06:31:18;98915.34;;;16.51;69.90
75317;BME280;63913;51.492;10.368;2022-10-17T06:33:44;98918.81;;;16.53;69.86
75317;BME280;63913;51.492;10.368;2022-10-17T06:36:13;98927.47;;;16.55;69.80
75317;BME280;63913;51.492;10.368;2022-10-17T06:38:45;98925.75;;;16.59;69.50
75317;BME280;63913;51.492;10.368;2022-10-17T06:41:16;98930.09;;;16.58;69.68
75317;BME280;63913;51.492;10.368;2022-10-17T06:43:46;98932.75;;;16.61;69.56
75317;BME280;63913;51.492;10.368;2022-10-17T06:46:16;98933.59;;;16.63;69.86
75317;BME280;63913;51.492;10.368;2022-10-17T06:48:45;98929.34;;;16.74;69.25
75317;BME280;63913;51.492;10.368;2022-10-17T06:51:11;98930.19;;;16.75;69.44
75317;BME280;63913;51.492;10.368;2022-10-17T06:53:38;98932.75;;;16.70;69.30
75317;BME280;63913;51.492;10.368;2022-10-17T06:56:05;98941.44;;;16.72;69.10
75317;BME280;63913;51.492;10.368;2022-10-17T06:58:35;98944.91;;;16.73;69.75
75317;BME280;63913;51.492;10.368;2022-10-17T07:01:12;98947.53;;;16.77;69.34
75317;BME280;63913;51.492;10.368;2022-10-17T07:03:38;98964.81;;;16.78;69.58
75317;BME280;63913;51.492;10.368;2022-10-17T07:06:11;98966.56;;;16.75;69.80
75317;BME280;63913;51.492;10.368;2022-10-17T07:08:43;98976.13;;;16.87;69.41
75317;BME280;63913;51.492;10.368;2022-10-17T07:11:27;98972.69;;;16.85;69.60
75317;BME280;63913;51.492;10.368;2022-10-17T07:13:53;98977.03;;;16.92;69.23
75317;BME280;63913;51.492;10.368;2022-10-17T07:16:18;98967.53;;;16.97;69.44
75317;BME280;63913;51.492;10.368;2022-10-17T07:18:50;98973.59;;;16.97;69.14
75317;BME280;63913;51.492;10.368;2022-10-17T07:21:19;98969.25;;;16.96;69.30
75317;BME280;63913;51.492;10.368;2022-10-17T07:23:47;98961.50;;;17.01;69.02
75317;BME280;63913;51.492;10.368;2022-10-17T07:26:14;98960.63;;;17.00;69.00
75317;BME280;63913;51.492;10.368;2022-10-17T07:28:44;98967.53;;;16.94;69.72
75317;BME280;63913;51.492;10.368;2022-10-17T07:31:13;98971.84;;;16.98;69.33
75317;BME280;63913;51.492;10.368;2022-10-17T07:36:15;98976.16;;;16.91;70.12
75317;BME280;63913;51.492;10.368;2022-10-17T07:38:47;98984.00;;;16.99;69.48
75317;BME280;63913;51.492;10.368;2022-10-17T07:41:12;98981.38;;;16.93;70.00
75317;BME280;63913;51.492;10.368;2022-10-17T07:43:37;98983.94;;;16.90;70.45
75317;BME280;63913;51.492;10.368;2022-10-17T07:46:09;98984.78;;;16.87;70.00
75317;BME280;63913;51.492;10.368;2022-10-17T07:48:36;98983.97;;;16.91;70.16
75317;BME280;63913;51.492;10.368;2022-10-17T07:51:06;98990.09;;;17.02;69.87
75317;BME280;63913;51.492;10.368;2022-10-17T07:53:34;98998.78;;;17.10;69.62
75317;BME280;63913;51.492;10.368;2022-10-17T07:56:09;98997.03;;;17.09;69.84
75317;BME280;63913;51.492;10.368;2022-10-17T07:58:47;98999.63;;;17.12;70.17
75317;BME280;63913;51.492;10.368;2022-10-17T08:01:12;99004.00;;;17.21;69.45
75317;BME280;63913;51.492;10.368;2022-10-17T08:03:50;98991.91;;;17.29;69.17
75317;BME280;63913;51.492;10.368;2022-10-17T08:06:18;98998.88;;;17.45;68.46
75317;BME280;63913;51.492;10.368;2022-10-17T08:08:47;98997.19;;;17.50;68.43
75317;BME280;63913;51.492;10.368;2022-10-17T08:11:13;99007.59;;;17.57;67.77
75317;BME280;63913;51.492;10.368;2022-10-17T08:13:41;98998.09;;;17.65;67.56
75317;BME280;63913;51.492;10.368;2022-10-17T08:16:11;98995.50;;;17.66;67.70
75317;BME280;63913;51.492;10.368;2022-10-17T08:18:43;98995.50;;;17.68;67.26
75317;BME280;63913;51.492;10.368;2022-10-17T08:21:14;98992.91;;;17.71;67.12
75317;BME280;63913;51.492;10.368;2022-10-17T08:23:40;98993.81;;;17.82;67.01
75317;BME280;63913;51.492;10.368;2022-10-17T08:26:07;99001.59;;;17.86;66.98
75317;BME280;63913;51.492;10.368;2022-10-17T08:28:39;99004.22;;;17.88;66.99
75317;BME280;63913;51.492;10.368;2022-10-17T08:31:10;99004.22;;;17.88;67.07
75317;BME280;63913;51.492;10.368;2022-10-17T08:33:36;98989.47;;;17.88;66.76
75317;BME280;63913;51.492;10.368;2022-10-17T08:36:05;98992.94;;;17.93;67.04
75317;BME280;63913;51.492;10.368;2022-10-17T08:38:44;99001.59;;;17.88;67.30
75317;BME280;63913;51.492;10.368;2022-10-17T08:47:34;98999.88;;;17.82;68.15
75317;BME280;63913;51.492;10.368;2022-10-17T08:56:24;98992.94;;;17.95;68.60
75317;BME280;63913;51.492;10.368;2022-10-17T08:58:53;98992.94;;;18.03;67.80
75317;BME280;63913;51.492;10.368;2022-10-17T09:07:26;98996.41;;;18.24;67.28
75317;BME280;63913;51.492;10.368;2022-10-17T09:22:02;99002.47;;;18.60;66.30
75317;BME280;63913;51.492;10.368;2022-10-17T09:24:42;98999.88;;;18.72;66.23
75317;BME280;63913;51.492;10.368;2022-10-17T09:27:43;98994.59;;;18.84;65.79
75317;BME280;63913;51.492;10.368;2022-10-17T09:32:59;99001.47;;;19.08;64.50
75317;BME280;63913;51.492;10.368;2022-10-17T09:35:26;99013.63;;;19.18;63.76
75317;BME280;63913;51.492;10.368;2022-10-17T09:37:55;99006.66;;;19.19;63.92
75317;BME280;63913;51.492;10.368;2022-10-17T09:40:58;99009.22;;;19.28;63.11
75317;BME280;63913;51.492;10.368;2022-10-17T09:43:24;99002.22;;;19.40;61.94
75317;BME280;63913;51.492;10.368;2022-10-17T09:46:05;98996.94;;;19.54;61.83
75317;BME280;63913;51.492;10.368;2022-10-17T09:48:45;99004.72;;;19.65;61.40
75317;BME280;63913;51.492;10.368;2022-10-17T09:51:13;98996.94;;;19.60;61.69
75317;BME280;63913;51.492;10.368;2022-10-17T09:53:42;99011.66;;;19.66;61.88
75317;BME280;63913;51.492;10.368;2022-10-17T09:56:15;99009.94;;;19.68;62.31
75317;BME280;63913;51.492;10.368;2022-10-17T09:58:59;98995.97;;;19.73;60.84
75317;BME280;63913;51.492;10.368;2022-10-17T10:01:37;99002.81;;;19.87;60.00
75317;BME280;63913;51.492;10.368;2022-10-17T10:04:16;99000.97;;;20.04;60.80
75317;BME280;63913;51.492;10.368;2022-10-17T10:07:01;98996.41;;;20.27;59.59
75317;BME280;63913;51.492;10.368;2022-10-17T10:09:32;98981.66;;;20.26;59.25
75317;BME280;63913;51.492;10.368;2022-10-17T10:12:13;98999.03;;;20.27;58.84
75317;BME280;63913;51.492;10.368;2022-10-17T10:14:43;99000.72;;;20.40;59.17
75317;BME280;63913;51.492;10.368;2022-10-17T10:17:37;98997.16;;;20.47;59.27
75317;BME280;63913;51.492;10.368;2022-10-17T10:20:39;99004.03;;;20.56;57.68
75317;BME280;63913;51.492;10.368;2022-10-17T10:23:26;98998.81;;;20.53;58.33
75317;BME280;63913;51.492;10.368;2022-10-17T10:29:17;99020.50;;;20.64;57.95
75317;BME280;63913;51.492;10.368;2022-10-17T10:31:44;99009.25;;;20.56;57.78
75317;BME280;63913;51.492;10.368;2022-10-17T10:34:27;99011.06;;;20.51;58.42
75317;BME280;63913;51.492;10.368;2022-10-17T10:37:16;99019.72;;;20.58;58.34
75317;BME280;63913;51.492;10.368;2022-10-17T10:40:04;99014.41;;;20.64;58.01
75317;BME280;63913;51.492;10.368;2022-10-17T10:42:37;99023.91;;;20.72;56.77
75317;BME280;63913;51.492;10.368;2022-10-17T10:48:25;99013.97;;;21.05;55.72
75317;BME280;63913;51.492;10.368;2022-10-17T10:51:07;99019.97;;;21.16;54.99
75317;BME280;63913;51.492;10.368;2022-10-17T10:53:58;99017.13;;;21.36;54.31
75317;BME280;63913;51.492;10.368;2022-10-17T10:56:40;98998.75;;;21.40;53.15
75317;BME280;63913;51.492;10.368;2022-10-17T11:05:01;99012.41;;;21.62;52.63
75317;BME280;63913;51.492;10.368;2022-10-17T11:07:35;99006.31;;;21.60;52.92
75317;BME280;63913;51.492;10.368;2022-10-17T11:15:52;99002.91;;;21.56;52.74
75317;BME280;63913;51.492;10.368;2022-10-17T11:18:41;99009.03;;;21.55;52.54
75317;BME280;63913;51.492;10.368;2022-10-17T11:21:15;99011.53;;;21.61;52.85
75317;BME280;63913;51.492;10.368;2022-10-17T11:23:52;99014.94;;;21.66;53.32
75317;BME280;63913;51.492;10.368;2022-10-17T11:26:31;99019.41;;;21.60;53.69
75317;BME280;63913;51.492;10.368;2022-10-17T11:29:01;99015.47;;;21.27;54.42
75317;BME280;63913;51.492;10.368;2022-10-17T11:31:35;99013.84;;;21.17;54.89
75317;BME280;63913;51.492;10.368;2022-10-17T11:34:26;99008.34;;;21.40;53.55
75317;BME280;63913;51.492;10.368;2022-10-17T11:36:57;99019.22;;;21.74;52.42
75317;BME280;63913;51.492;10.368;2022-10-17T11:39:48;99003.31;;;21.87;52.81
75317;BME280;63913;51.492;10.368;2022-10-17T11:42:26;99006.63;;;22.00;52.27
75317;BME280;63913;51.492;10.368;2022-10-17T11:45:02;99001.38;;;22.01;51.92
75317;BME280;63913;51.492;10.368;2022-10-17T11:47:49;98999.88;;;21.84;51.88
75317;BME280;63913;51.492;10.368;2022-10-17T11:54:09;99003.47;;;22.33;52.32
75317;BME280;63913;51.492;10.368;2022-10-17T11:56:48;99001.34;;;22.55;51.31
75317;BME280;63913;51.492;10.368;2022-10-17T12:02:29;99010.94;;;22.55;50.56
75317;BME280;63913;51.492;10.368;2022-10-17T12:05:01;99001.78;;;22.80;49.22
75317;BME280;63913;51.492;10.368;2022-10-17T12:07:38;99012.56;;;22.63;49.68
75317;BME280;63913;51.492;10.368;2022-10-17T12:12:42;99033.28;;;22.26;49.05
75317;BME280;63913;51.492;10.368;2022-10-17T12:17:37;99021.66;;;21.87;50.43
75317;BME280;63913;51.492;10.368;2022-10-17T12:22:49;99008.56;;;21.87;51.41
75317;BME280;63913;51.492;10.368;2022-10-17T12:25:18;99008.59;;;21.84;51.05
75317;BME280;63913;51.492;10.368;2022-10-17T12:27:46;99012.16;;;21.79;51.21
75317;BME280;63913;51.492;10.368;2022-10-17T12:30:25;99010.47;;;21.75;51.74
75317;BME280;63913;51.492;10.368;2022-10-17T12:36:35;99017.41;;;21.79;50.89
75317;BME280;63913;51.492;10.368;2022-10-17T12:38:36;99016.56;;;21.75;51.66
75317;BME280;63913;51.492;10.368;2022-10-17T12:41:03;99020.91;;;21.78;51.77
75317;BME280;63913;51.492;10.368;2022-10-17T12:45:57;99020.94;;;21.76;52.75
75317;BME280;63913;51.492;10.368;2022-10-17T12:51:18;99024.44;;;21.75;51.80
75317;BME280;63913;51.492;10.368;2022-10-17T12:54:10;99016.41;;;21.89;53.51
75317;BME280;63913;51.492;10.368;2022-10-17T12:56:41;99014.72;;;22.40;49.55
75317;BME280;63913;51.492;10.368;2022-10-17T12:59:27;99013.16;;;22.79;48.83
75317;BME280;63913;51.492;10.368;2022-10-17T13:01:58;99010.38;;;22.88;48.74
75317;BME280;63913;51.492;10.368;2022-10-17T13:04:25;98999.31;;;22.71;48.64
75317;BME280;63913;51.492;10.368;2022-10-17T13:06:55;98998.56;;;22.64;48.88
75317;BME280;63913;51.492;10.368;2022-10-17T13:09:28;99011.03;;;22.52;48.74
75317;BME280;63913;51.492;10.368;2022-10-17T13:12:01;99003.31;;;22.42;48.24
75317;BME280;63913;51.492;10.368;2022-10-17T13:14:31;99012.78;;;22.51;47.27
75317;BME280;63913;51.492;10.368;2022-10-17T13:17:03;98999.41;;;22.66;46.11
75317;BME280;63913;51.492;10.368;2022-10-17T13:19:47;99006.09;;;22.84;44.79
75317;BME280;63913;51.492;10.368;2022-10-17T13:22:34;99008.88;;;22.76;45.65
75317;BME280;63913;51.492;10.368;2022-10-17T13:25:14;99009.75;;;22.72;45.92
75317;BME280;63913;51.492;10.368;2022-10-17T13:28:04;99021.84;;;22.84;44.49
75317;BME280;63913;51.492;10.368;2022-10-17T13:30:36;99009.38;;;22.95;44.66
75317;BME280;63913;51.492;10.368;2022-10-17T13:33:15;99014.22;;;23.16;45.68
75317;BME280;63913;51.492;10.368;2022-10-17T13:35:46;99016.56;;;23.29;43.90
75317;BME280;63913;51.492;10.368;2022-10-17T13:38:12;99018.97;;;23.39;44.42
75317;BME280;63913;51.492;10.368;2022-10-17T13:40:42;99023.97;;;23.51;42.72
75317;BME280;63913;51.492;10.368;2022-10-17T13:43:17;99029.16;;;23.56;43.12
75317;BME280;63913;51.492;10.368;2022-10-17T13:45:48;99035.31;;;23.10;43.23
75317;BME280;63913;51.492;10.368;2022-10-17T13:48:26;99026.03;;;22.94;43.28
75317;BME280;63913;51.492;10.368;2022-10-17T13:50:54;99022.69;;;22.85;43.96
75317;BME280;63913;51.492;10.368;2022-10-17T13:53:38;99026.22;;;22.83;44.60
75317;BME280;63913;51.492;10.368;2022-10-17T13:56:25;99030.34;;;22.95;43.86
75317;BME280;63913;51.492;10.368;2022-10-17T13:58:53;99025.63;;;23.12;43.85
75317;BME280;63913;51.492;10.368;2022-10-17T14:01:27;99025.38;;;23.26;44.12
75317;BME280;63913;51.492;10.368;2022-10-17T14:03:53;99028.00;;;23.26;43.89
75317;BME280;63913;51.492;10.368;2022-10-17T14:06:25;99032.94;;;22.97;44.57
75317;BME280;63913;51.492;10.368;2022-10-17T14:09:15;99031.59;;;22.77;44.78
75317;BME280;63913;51.492;10.368;2022-10-17T14:12:02;99037.53;;;22.86;44.00
75317;BME280;63913;51.492;10.368;2022-10-17T14:14:28;99028.03;;;22.78;44.07
75317;BME280;63913;51.492;10.368;2022-10-17T14:17:34;99035.97;;;22.75;44.38
75317;BME280;63913;51.492;10.368;2022-10-17T14:20:01;99034.94;;;22.86;44.66
75317;BME280;63913;51.492;10.368;2022-10-17T14:22:33;99020.78;;;22.94;44.57
75317;BME280;63913;51.492;10.368;2022-10-17T14:25:03;99018.19;;;22.93;44.73
75317;BME280;63913;51.492;10.368;2022-10-17T14:27:36;99018.28;;;22.87;44.29
75317;BME280;63913;51.492;10.368;2022-10-17T14:32:49;99015.09;;;22.68;45.06
75317;BME280;63913;51.492;10.368;2022-10-17T14:35:21;99025.47;;;22.77;45.17
75317;BME280;63913;51.492;10.368;2022-10-17T14:38:05;99022.97;;;22.68;44.54
75317;BME280;63913;51.492;10.368;2022-10-17T14:40:32;99030.72;;;22.77;44.44
75317;BME280;63913;51.492;10.368;2022-10-17T14:43:02;99029.09;;;22.68;45.18
75317;BME280;63913;51.492;10.368;2022-10-17T14:45:32;99022.91;;;22.71;45.35
75317;BME280;63913;51.492;10.368;2022-10-17T14:48:03;99034.31;;;22.70;45.38
75317;BME280;63913;51.492;10.368;2022-10-17T14:50:33;99030.75;;;22.71;45.72
75317;BME280;63913;51.492;10.368;2022-10-17T14:55:55;99038.00;;;22.57;46.17
75317;BME280;63913;51.492;10.368;2022-10-17T14:58:27;99030.28;;;22.49;46.34
75317;BME280;63913;51.492;10.368;2022-10-17T15:00:56;99034.91;;;22.33;46.71
75317;BME280;63913;51.492;10.368;2022-10-17T15:03:22;99038.50;;;22.29;47.14
75317;BME280;63913;51.492;10.368;2022-10-17T15:05:49;99036.81;;;22.24;47.25
75317;BME280;63913;51.492;10.368;2022-10-17T15:08:16;99034.22;;;22.22;47.17
75317;BME280;63913;51.492;10.368;2022-10-17T15:10:46;99051.75;;;22.20;47.53
75317;BME280;63913;51.492;10.368;2022-10-17T15:13:12;99046.56;;;22.16;47.28
75317;BME280;63913;51.492;10.368;2022-10-17T15:15:41;99050.13;;;22.10;47.49